Ashland, Missouri
Current Conditions -  °F | °C
As of 3:54 AM on Sunday 25 Jan 2015 (Local Time) from KCOU Reporting Station
Light Rain Light Rain  
Wind Chill:   Ceiling: 1000
Heat Index:   Visibility: 8mi
Dew Point:   Wind: 9mph
Humidity: 100%   Direction: 230°SW
Pressure: 29.59"   Gusts: NA
Location:  38.77°N, 92.26°W
Report Text: KCOU 250954Z AUTO 23008KT 8SM -RA BKN010 OVC017 07/07 A2959 RMK AO2 SLP020 P0004 T00670067
Loading
Personal Weather Stations






























Interactive Weather Map New forecast layout! Learn more

10-Day Weather Forecast

Advertisements
Track Severe Weather on mobile